Time;durP1;ratioP1;P1;durP2;ratioP2;P2;SDS_P1;SDS_P2;PMS_P1;PMS_P2;Temp;Humidity;BMP_temperature;BMP_pressure;BME280_temperature;BME280_humidity;BME280_pressure;Samples;Min_cycle;Max_cycle;Signal;HPM_P1;HPM_P2
2022/02/05 00:05:05;;;;;;;2.05;0.70;;;18.60;61.80;;;;;;10615426;27;20040;-44
2022/02/05 00:10:25;;;;;;;1.33;0.50;;;18.60;61.80;;;;;;10583842;28;20028;-44
2022/02/05 00:15:36;;;;;;;1.20;0.60;;;18.60;61.70;;;;;;10594776;27;20038;-41
2022/02/05 00:42:26;;;;;;;1.37;0.40;;;18.70;61.30;;;;;;10586622;27;20043;-42
2022/02/05 00:47:27;;;;;;;2.13;0.60;;;18.70;61.30;;;;;;10597448;27;20035;-42
2022/02/05 00:52:27;;;;;;;0.68;0.30;;;18.70;61.20;;;;;;10615539;27;20011;-42
2022/02/05 01:02:40;;;;;;;1.35;0.35;;;18.70;61.20;;;;;;10581768;28;20035;-42
2022/02/05 01:07:41;;;;;;;0.85;0.30;;;18.70;61.10;;;;;;10581590;28;20388;-43
2022/02/05 01:12:48;;;;;;;1.00;0.35;;;18.70;61.00;;;;;;10590509;27;20080;-42
2022/02/05 01:17:55;;;;;;;1.90;0.43;;;18.70;61.10;;;;;;10587171;27;20032;-43
2022/02/05 01:23:00;;;;;;;1.08;0.38;;;18.60;61.40;;;;;;10581253;27;20130;-42
2022/02/05 01:28:10;;;;;;;1.80;0.40;;;18.60;61.40;;;;;;10580617;28;20044;-43
2022/02/05 01:33:45;;;;;;;0.60;0.30;;;18.60;61.30;;;;;;10581799;27;20023;-42
2022/02/05 01:55:06;;;;;;;0.50;0.40;;;18.60;61.30;;;;;;10592567;28;20043;-42
2022/02/05 02:05:11;;;;;;;1.15;0.45;;;18.60;61.40;;;;;;10587587;28;20039;-42
2022/02/05 02:15:36;;;;;;;1.20;0.70;;;18.60;61.30;;;;;;10584557;27;20035;-42
2022/02/05 02:26:27;;;;;;;0.60;0.40;;;18.60;61.30;;;;;;10588680;27;20064;-44
2022/02/05 02:31:33;;;;;;;0.82;0.38;;;18.60;61.10;;;;;;10581565;27;20092;-42
2022/02/05 02:36:40;;;;;;;0.40;0.32;;;18.60;61.20;;;;;;10589604;27;20113;-42
2022/02/05 02:41:49;;;;;;;0.40;0.30;;;18.60;61.00;;;;;;10601214;27;20055;-43
2022/02/05 02:46:50;;;;;;;1.02;0.57;;;18.60;61.20;;;;;;10602577;27;20112;-49
2022/02/05 03:02:13;;;;;;;0.73;0.35;;;18.60;61.10;;;;;;10629596;27;20035;-42
2022/02/05 03:07:13;;;;;;;2.08;0.47;;;18.60;61.10;;;;;;10599866;27;20031;-42
2022/02/05 03:12:14;;;;;;;1.50;0.70;;;18.60;61.00;;;;;;10582551;27;20092;-42
2022/02/05 03:17:18;;;;;;;1.00;0.45;;;18.60;61.10;;;;;;10614451;27;20499;-42
2022/02/05 03:22:24;;;;;;;0.88;0.50;;;18.60;61.10;;;;;;10599595;27;20024;-41
2022/02/05 03:27:25;;;;;;;0.60;0.30;;;18.60;61.10;;;;;;10615162;27;20135;-42
2022/02/05 03:32:26;;;;;;;0.82;0.35;;;18.60;61.10;;;;;;10596704;27;20028;-42
2022/02/05 03:37:26;;;;;;;0.70;0.35;;;18.60;61.00;;;;;;10593206;27;20034;-42
2022/02/05 03:42:27;;;;;;;2.55;0.50;;;18.60;60.90;;;;;;10585143;28;20111;-43
2022/02/05 03:47:32;;;;;;;1.75;0.65;;;18.60;60.90;;;;;;10619860;27;20080;-43
2022/02/05 03:52:33;;;;;;;0.60;0.35;;;18.60;60.90;;;;;;10589954;27;20122;-44
2022/02/05 03:57:34;;;;;;;0.85;0.20;;;18.60;60.90;;;;;;10584660;27;20027;-42
2022/02/05 04:02:36;;;;;;;0.40;0.30;;;18.60;60.80;;;;;;10584757;27;20027;-43
2022/02/05 04:07:42;;;;;;;0.50;0.35;;;18.60;61.00;;;;;;10609843;27;20045;-43
2022/02/05 04:18:02;;;;;;;0.73;0.32;;;18.60;60.80;;;;;;10583709;27;20044;-42
2022/02/05 04:23:03;;;;;;;0.47;0.20;;;18.60;60.80;;;;;;10579034;27;20028;-42
2022/02/05 04:28:04;;;;;;;1.05;0.40;;;18.60;60.90;;;;;;10601250;27;20070;-42
2022/02/05 04:33:05;;;;;;;0.52;0.30;;;18.60;60.80;;;;;;10595415;27;20125;-42
2022/02/05 04:38:07;;;;;;;0.95;0.30;;;18.60;60.70;;;;;;10608645;27;20039;-42
2022/02/05 04:43:21;;;;;;;0.77;0.50;;;18.60;60.60;;;;;;10589625;27;20023;-43
2022/02/05 04:59:30;;;;;;;0.75;0.30;;;18.70;60.60;;;;;;10600124;27;20039;-42
2022/02/05 05:04:40;;;;;;;1.20;0.40;;;18.60;60.50;;;;;;10595097;27;20031;-42
2022/02/05 05:20:07;;;;;;;0.43;0.30;;;18.70;60.50;;;;;;10584757;27;20428;-42
2022/02/05 05:25:09;;;;;;;1.60;0.50;;;18.60;60.50;;;;;;10595538;27;20050;-42
2022/02/05 05:30:11;;;;;;;0.22;0.20;;;18.70;60.50;;;;;;10600466;27;20051;-43
2022/02/05 05:35:11;;;;;;;0.57;0.38;;;18.70;60.40;;;;;;10587272;27;20031;-42
2022/02/05 05:40:12;;;;;;;0.55;0.40;;;18.70;60.50;;;;;;10581454;27;20049;-42
2022/02/05 05:45:25;;;;;;;0.60;0.22;;;18.70;60.40;;;;;;10601586;27;20038;-42
2022/02/05 05:55:47;;;;;;;0.75;0.30;;;18.80;60.20;;;;;;10608101;28;20123;-43
2022/02/05 06:00:49;;;;;;;0.60;0.32;;;18.70;60.40;;;;;;10603514;28;20036;-42
2022/02/05 06:05:49;;;;;;;1.02;0.40;;;18.60;60.60;;;;;;10583415;28;20385;-43
2022/02/05 06:10:50;;;;;;;0.52;0.30;;;18.60;60.50;;;;;;10569046;28;20120;-42
2022/02/05 06:15:53;;;;;;;1.23;0.32;;;18.60;60.50;;;;;;10605093;28;20151;-42
2022/02/05 06:20:54;;;;;;;1.85;0.50;;;18.60;60.60;;;;;;10596412;28;20395;-44
2022/02/05 06:25:55;;;;;;;3.55;0.63;;;18.70;61.10;;;;;;10599186;28;20106;-42
2022/02/05 06:30:56;;;;;;;5.22;1.27;;;18.70;61.90;;;;;;10592715;28;20068;-42
2022/02/05 06:35:56;;;;;;;5.70;0.68;;;18.70;62.40;;;;;;10593498;28;20102;-44
2022/02/05 06:40:57;;;;;;;7.05;1.30;;;18.80;61.80;;;;;;10599760;28;20032;-44
2022/02/05 06:45:58;;;;;;;7.80;1.10;;;18.70;61.60;;;;;;10600035;28;20024;-45
2022/02/05 06:50:59;;;;;;;10.63;1.73;;;18.70;61.80;;;;;;10593314;28;20075;-58
2022/02/05 06:55:59;;;;;;;6.53;0.95;;;18.80;61.90;;;;;;10594712;28;20043;-58
2022/02/05 07:01:00;;;;;;;8.60;1.52;;;18.70;62.10;;;;;;10587264;28;20483;-57
2022/02/05 07:06:01;;;;;;;15.23;1.88;;;18.60;62.20;;;;;;10602002;27;20498;-57
2022/02/05 07:11:02;;;;;;;4.65;1.10;;;18.60;62.10;;;;;;10591317;27;20027;-57
2022/02/05 07:21:17;;;;;;;7.10;1.05;;;18.50;61.80;;;;;;10584041;27;20126;-57
2022/02/05 07:31:40;;;;;;;9.83;1.37;;;18.50;61.30;;;;;;10601349;27;20139;-56
2022/02/05 07:36:41;;;;;;;8.15;1.20;;;18.40;61.40;;;;;;10606524;27;20027;-56
2022/02/05 07:41:43;;;;;;;6.63;1.75;;;18.30;61.60;;;;;;10566472;28;20483;-56
2022/02/05 07:46:47;;;;;;;12.30;2.08;;;18.20;61.60;;;;;;10578634;27;20031;-57
2022/02/05 07:51:49;;;;;;;9.98;1.92;;;18.20;62.20;;;;;;10586203;27;20127;-56
2022/02/05 07:56:50;;;;;;;24.20;3.35;;;18.10;62.90;;;;;;10560314;27;20107;-56
2022/02/05 08:01:51;;;;;;;24.67;3.88;;;18.10;64.50;;;;;;10599234;27;20497;-57
2022/02/05 08:06:52;;;;;;;19.52;3.42;;;18.00;64.70;;;;;;10585823;27;20044;-58
2022/02/05 08:12:06;;;;;;;14.98;2.05;;;18.00;63.90;;;;;;10582999;27;20020;-56
2022/02/05 08:17:17;;;;;;;18.20;2.95;;;17.80;63.50;;;;;;10593379;27;20388;-56
2022/02/05 08:22:18;;;;;;;14.82;2.50;;;17.80;63.60;;;;;;10586534;27;20024;-56
2022/02/05 08:27:19;;;;;;;14.98;2.88;;;17.70;63.80;;;;;;10598629;27;20055;-57
2022/02/05 08:32:23;;;;;;;21.90;3.13;;;17.70;64.10;;;;;;10597377;27;20056;-56
2022/02/05 08:37:24;;;;;;;17.48;3.00;;;17.70;65.00;;;;;;10580501;27;20021;-57
2022/02/05 08:42:25;;;;;;;13.85;2.20;;;17.60;64.20;;;;;;10585918;27;20031;-56
2022/02/05 08:47:25;;;;;;;9.18;2.15;;;17.50;63.90;;;;;;10582380;27;20031;-56
2022/02/05 08:52:27;;;;;;;9.88;2.53;;;17.50;63.80;;;;;;10582086;28;20068;-57
2022/02/05 08:57:29;;;;;;;14.18;3.08;;;17.40;63.60;;;;;;10577930;27;20466;-56
2022/02/05 09:02:42;;;;;;;22.13;2.90;;;17.40;63.80;;;;;;10577529;27;20055;-57
2022/02/05 09:07:43;;;;;;;9.32;2.40;;;17.40;63.80;;;;;;10597158;27;20477;-55
2022/02/05 09:13:07;;;;;;;11.73;2.70;;;17.30;63.80;;;;;;10588389;27;20520;-56
2022/02/05 09:18:05;;;;;;;10.63;2.60;;;17.30;64.00;;;;;;10612332;27;20820;-56
2022/02/05 09:23:06;;;;;;;11.52;2.25;;;17.30;63.90;;;;;;10580706;27;20031;-55
2022/02/05 09:28:09;;;;;;;11.82;2.20;;;17.20;63.90;;;;;;10569109;27;20130;-56
2022/02/05 09:33:10;;;;;;;10.57;2.53;;;17.20;64.00;;;;;;10588754;27;20030;-57
2022/02/05 09:38:10;;;;;;;11.55;2.83;;;17.30;63.70;;;;;;10588695;27;20533;-57
2022/02/05 09:43:12;;;;;;;12.60;2.33;;;17.30;64.30;;;;;;10601646;27;20369;-55
2022/02/05 09:48:16;;;;;;;14.18;3.03;;;17.20;64.10;;;;;;10546395;28;20067;-57
2022/02/05 09:53:20;;;;;;;16.48;2.80;;;17.20;63.00;;;;;;10589986;27;20031;-56
2022/02/05 09:58:20;;;;;;;20.23;3.90;;;17.30;64.20;;;;;;10610623;27;20034;-56
2022/02/05 10:03:27;;;;;;;34.42;6.38;;;17.30;64.30;;;;;;10622052;27;20038;-56
2022/02/05 10:08:28;;;;;;;21.58;4.53;;;17.40;64.60;;;;;;10583312;28;20028;-56
2022/02/05 10:13:31;;;;;;;27.38;4.03;;;17.40;64.80;;;;;;10560206;28;20467;-57
2022/02/05 10:18:43;;;;;;;19.92;4.30;;;17.40;64.70;;;;;;10582555;28;20068;-60
2022/02/05 10:24:04;;;;;;;24.77;4.18;;;17.40;64.00;;;;;;10576619;28;20031;-60
2022/02/05 10:29:14;;;;;;;25.17;5.25;;;17.40;64.30;;;;;;10575685;28;20063;-59
2022/02/05 10:34:15;;;;;;;29.63;4.95;;;17.50;64.40;;;;;;10556438;28;20032;-60
2022/02/05 10:44:32;;;;;;;34.20;6.68;;;17.40;65.50;;;;;;10603144;27;20036;-60
2022/02/05 10:49:46;;;;;;;27.83;5.50;;;17.40;65.30;;;;;;10596503;27;20027;-60
2022/02/05 10:55:01;;;;;;;26.45;5.40;;;17.30;65.50;;;;;;10599890;27;20489;-64
2022/02/05 11:05:23;;;;;;;29.13;5.35;;;17.20;65.40;;;;;;10589768;27;20507;-62
2022/02/05 11:10:37;;;;;;;22.67;5.07;;;17.20;65.10;;;;;;10556613;28;20387;-62
2022/02/05 11:20:57;;;;;;;29.40;5.13;;;17.20;64.90;;;;;;10586463;27;20485;-61
2022/02/05 11:25:59;;;;;;;25.67;6.35;;;17.10;65.20;;;;;;10591878;27;20513;-61
2022/02/05 11:31:13;;;;;;;24.08;5.13;;;17.10;65.50;;;;;;10591339;27;20079;-60
2022/02/05 11:41:35;;;;;;;20.70;4.50;;;17.10;64.90;;;;;;10583394;27;20097;-59
2022/02/05 11:46:36;;;;;;;19.15;4.82;;;17.30;65.50;;;;;;10577620;27;20072;-57
2022/02/05 11:51:45;;;;;;;23.67;3.72;;;17.30;65.50;;;;;;10591204;27;20080;-60
2022/02/05 11:56:57;;;;;;;;;;;17.40;65.40;;;;;;10590027;27;20126;-60
2022/02/05 12:02:18;;;;;;;24.95;4.00;;;17.50;65.70;;;;;;10584193;28;19907;-61
2022/02/05 12:07:19;;;;;;;25.10;4.97;;;17.50;66.00;;;;;;10578361;27;20364;-59
2022/02/05 12:12:26;;;;;;;32.50;5.25;;;17.50;65.30;;;;;;10576015;27;20019;-60
2022/02/05 12:17:38;;;;;;;22.48;4.68;;;17.40;65.70;;;;;;10583672;28;20050;-59
2022/02/05 12:24:13;;;;;;;24.63;5.22;;;17.40;65.60;;;;;;10580575;27;20038;-59
2022/02/05 12:28:29;;;;;;;18.63;3.78;;;17.40;65.40;;;;;;10575240;27;20055;-58
2022/02/05 12:33:49;;;;;;;21.95;4.07;;;17.40;65.50;;;;;;10587580;27;20032;-59
2022/02/05 12:38:50;;;;;;;;;;;17.50;65.80;;;;;;10589401;27;20528;-59
2022/02/05 12:43:53;;;;;;;18.02;4.05;;;17.40;66.50;;;;;;10597749;27;19907;-58
2022/02/05 12:49:00;;;;;;;27.67;4.28;;;17.50;66.90;;;;;;10586012;27;20032;-59
2022/02/05 12:54:13;;;;;;;22.17;4.10;;;17.40;67.10;;;;;;10568055;27;20030;-58
2022/02/05 12:59:24;;;;;;;26.67;5.05;;;17.40;67.50;;;;;;10589489;27;20034;-59
2022/02/05 13:04:33;;;;;;;18.25;3.80;;;17.40;67.70;;;;;;10585725;27;20039;-59
2022/02/05 13:09:40;;;;;;;23.15;4.70;;;17.40;68.00;;;;;;10592001;27;20046;-59
2022/02/05 13:14:46;;;;;;;39.08;5.82;;;17.50;68.00;;;;;;10603709;27;20062;-60
2022/02/05 13:24:36;;;;;;;21.02;4.72;;;17.50;68.50;;;;;;10583579;27;20028;-58
2022/02/05 13:25:46;;;;;;;36.58;5.72;;;17.40;67.70;;;;;;10570313;27;20035;-60
2022/02/05 13:36:10;;;;;;;19.38;4.35;;;17.40;67.40;;;;;;10588602;27;20038;-60
2022/02/05 13:41:10;;;;;;;31.30;6.35;;;17.40;67.20;;;;;;10595658;27;20023;-61
2022/02/05 13:46:20;;;;;;;39.22;8.20;;;17.30;67.40;;;;;;10561344;27;20031;-59
2022/02/05 13:51:20;;;;;;;24.70;5.85;;;17.30;67.20;;;;;;10594788;27;20491;-59
2022/02/05 13:56:22;;;;;;;22.17;4.80;;;17.30;67.20;;;;;;10570515;27;20100;-59
2022/02/05 14:01:35;;;;;;;23.17;4.68;;;17.20;66.50;;;;;;10559240;28;20035;-59
2022/02/05 14:06:50;;;;;;;21.38;4.75;;;17.10;66.90;;;;;;10559843;28;20372;-58
2022/02/05 14:11:52;;;;;;;15.27;4.07;;;17.10;66.90;;;;;;10566604;28;20032;-59
2022/02/05 14:16:54;;;;;;;19.25;4.00;;;17.10;67.00;;;;;;10584486;27;20092;-59
2022/02/05 14:21:57;;;;;;;20.35;4.22;;;17.00;67.00;;;;;;10608151;27;20087;-59
2022/02/05 14:27:18;;;;;;;13.30;3.78;;;17.00;67.10;;;;;;10592837;27;20070;-59
2022/02/05 14:42:47;;;;;;;19.42;3.60;;;17.00;66.80;;;;;;10587051;27;19907;-59
2022/02/05 14:47:48;;;;;;;16.17;3.47;;;17.00;66.70;;;;;;10627483;27;20487;-59
2022/02/05 14:52:49;;;;;;;13.73;3.00;;;17.10;66.50;;;;;;10593870;27;20534;-59
2022/02/05 14:57:50;;;;;;;10.90;3.28;;;17.10;66.40;;;;;;10603007;27;20111;-59
2022/02/05 15:02:51;;;;;;;9.45;3.00;;;17.10;66.20;;;;;;10605689;27;20441;-58
2022/02/05 15:07:52;;;;;;;11.15;2.92;;;17.20;65.80;;;;;;10616422;27;20031;-58
2022/02/05 15:12:53;;;;;;;11.27;2.60;;;17.30;65.60;;;;;;10585807;28;20432;-60
2022/02/05 15:17:54;;;;;;;14.18;3.30;;;17.40;65.30;;;;;;10561050;27;20118;-58
2022/02/05 15:22:54;;;;;;;9.75;2.70;;;17.40;65.10;;;;;;10609275;27;20027;-59
2022/02/05 15:27:55;;;;;;;10.40;2.38;;;17.40;65.10;;;;;;10609163;27;20043;-59
2022/02/05 15:32:56;;;;;;;8.20;2.35;;;17.40;65.10;;;;;;10592138;27;20023;-58
2022/02/05 15:38:08;;;;;;;7.53;2.78;;;17.50;64.80;;;;;;10582551;28;20422;-59
2022/02/05 15:48:27;;;;;;;11.32;2.40;;;17.40;64.80;;;;;;10596655;27;20035;-59
2022/02/05 15:53:29;;;;;;;6.82;1.77;;;17.40;65.00;;;;;;10583770;28;20028;-59
2022/02/05 15:58:36;;;;;;;6.60;2.58;;;17.50;64.70;;;;;;10597461;27;20469;-59
2022/02/05 16:03:37;;;;;;;5.55;2.03;;;17.50;64.50;;;;;;10608949;27;20059;-59
2022/02/05 16:08:38;;;;;;;8.77;2.70;;;17.50;64.50;;;;;;10590327;27;20106;-59
2022/02/05 16:13:38;;;;;;;6.78;1.92;;;17.50;64.30;;;;;;10606341;27;20023;-58
2022/02/05 16:18:39;;;;;;;7.65;2.25;;;17.50;64.50;;;;;;10620266;27;20120;-59
2022/02/05 16:23:40;;;;;;;7.90;1.95;;;17.50;64.50;;;;;;10565361;28;20057;-60
2022/02/05 16:28:42;;;;;;;10.43;2.28;;;17.50;64.30;;;;;;10564969;28;20132;-60
2022/02/05 16:33:44;;;;;;;9.48;2.20;;;17.60;64.10;;;;;;10573780;27;20026;-59
2022/02/05 16:38:50;;;;;;;16.42;3.28;;;17.60;64.20;;;;;;10586684;27;20019;-59
2022/02/05 16:43:51;;;;;;;13.85;3.03;;;17.50;64.30;;;;;;10587649;27;20033;-62
2022/02/05 16:48:52;;;;;;;14.48;3.38;;;17.50;64.40;;;;;;10588967;27;20439;-61
2022/02/05 16:53:54;;;;;;;18.25;3.95;;;17.60;64.50;;;;;;10625025;27;20119;-59
2022/02/05 16:58:54;;;;;;;16.92;3.22;;;17.50;64.40;;;;;;10571650;28;20556;-59
2022/02/05 17:03:59;;;;;;;9.93;3.25;;;17.50;64.10;;;;;;10593957;27;20035;-58
2022/02/05 17:09:00;;;;;;;12.63;3.45;;;17.60;63.40;;;;;;10585389;27;20027;-60
2022/02/05 17:14:00;;;;;;;9.00;2.58;;;17.50;62.80;;;;;;10613559;27;20066;-59
2022/02/05 17:19:03;;;;;;;12.77;2.90;;;17.60;62.40;;;;;;10593552;27;20019;-60
2022/02/05 17:24:04;;;;;;;5.85;2.53;;;17.70;62.00;;;;;;10619363;27;20023;-59
2022/02/05 17:29:06;;;;;;;7.80;2.45;;;17.70;61.60;;;;;;10607667;27;20043;-60
2022/02/05 17:34:07;;;;;;;7.30;2.42;;;17.70;63.40;;;;;;10591242;27;20024;-60
2022/02/05 17:39:08;;;;;;;8.02;2.10;;;17.80;65.50;;;;;;10572087;27;20031;-59
2022/02/05 17:44:09;;;;;;;10.10;2.38;;;17.80;65.10;;;;;;10589455;27;20102;-59
2022/02/05 17:49:10;;;;;;;13.40;2.45;;;17.80;65.60;;;;;;10604506;27;20027;-60
2022/02/05 17:54:11;;;;;;;7.20;2.92;;;17.80;65.60;;;;;;10603803;27;20467;-60
2022/02/05 17:59:13;;;;;;;16.42;2.88;;;17.80;65.20;;;;;;10603670;27;20042;-59
2022/02/05 18:04:14;;;;;;;11.85;3.05;;;17.70;65.00;;;;;;10591422;27;20111;-59
2022/02/05 18:19:34;;;;;;;13.32;2.38;;;17.60;65.20;;;;;;10605812;28;20121;-58
2022/02/05 18:24:34;;;;;;;7.22;1.88;;;17.60;65.00;;;;;;10597195;28;20035;-58
2022/02/05 18:29:35;;;;;;;9.45;2.20;;;17.50;65.60;;;;;;10598985;28;20070;-58
2022/02/05 18:34:38;;;;;;;6.97;2.38;;;17.50;65.20;;;;;;10577559;28;20368;-58
2022/02/05 18:39:45;;;;;;;7.82;2.70;;;17.60;65.00;;;;;;10572886;28;20084;-57
2022/02/05 18:44:47;;;;;;;7.25;1.92;;;17.60;65.00;;;;;;10565040;28;20027;-58
2022/02/05 18:49:48;;;;;;;10.60;2.28;;;17.60;64.80;;;;;;10600694;28;20038;-58
2022/02/05 18:54:49;;;;;;;7.28;1.48;;;17.70;64.80;;;;;;10603446;27;20020;-58
2022/02/05 18:59:53;;;;;;;5.35;1.80;;;17.60;64.80;;;;;;10593626;27;20075;-58
2022/02/05 19:10:43;;;;;;;9.75;2.03;;;17.70;64.90;;;;;;10628855;27;20126;-58
2022/02/05 19:20:54;;;;;;;5.72;1.95;;;17.60;65.30;;;;;;10608603;27;20036;-58
2022/02/05 19:25:55;;;;;;;7.00;1.83;;;17.60;65.00;;;;;;10588981;27;20022;-58
2022/02/05 19:30:56;;;;;;;6.18;1.67;;;17.60;65.00;;;;;;10567131;28;20388;-58
2022/02/05 19:35:58;;;;;;;4.20;1.73;;;17.70;64.90;;;;;;10585435;28;20352;-58
2022/02/05 19:41:00;;;;;;;4.47;1.50;;;17.70;65.00;;;;;;10585818;27;20035;-58
2022/02/05 19:46:01;;;;;;;5.35;2.03;;;17.60;65.60;;;;;;10609645;27;20108;-58
2022/02/05 19:51:02;;;;;;;5.28;1.40;;;17.60;65.20;;;;;;10614441;27;20024;-58
2022/02/05 19:56:03;;;;;;;5.05;1.40;;;17.60;65.10;;;;;;10571130;27;20503;-59
2022/02/05 20:01:03;;;;;;;6.95;1.90;;;17.60;65.30;;;;;;10595095;27;20031;-59
2022/02/05 20:06:13;;;;;;;6.32;1.50;;;17.70;65.30;;;;;;10581839;27;20049;-58
2022/02/05 20:11:13;;;;;;;3.38;1.40;;;17.60;65.20;;;;;;10577114;28;20031;-59
2022/02/05 20:16:16;;;;;;;5.13;1.70;;;17.60;65.30;;;;;;10581557;28;20031;-59
2022/02/05 20:21:17;;;;;;;2.90;0.82;;;17.60;65.20;;;;;;10591370;27;20027;-59
2022/02/05 20:26:19;;;;;;;4.25;1.50;;;17.60;65.20;;;;;;10607543;27;20463;-59
2022/02/05 20:31:23;;;;;;;5.03;1.45;;;17.50;65.20;;;;;;10551713;28;20031;-59
2022/02/05 20:36:24;;;;;;;5.30;1.30;;;17.60;65.00;;;;;;10586702;27;20031;-58
2022/02/05 20:41:25;;;;;;;4.32;1.15;;;17.60;64.80;;;;;;10603390;27;20034;-58
2022/02/05 20:46:32;;;;;;;2.80;1.35;;;17.60;64.80;;;;;;10549839;27;20055;-59
2022/02/05 20:51:35;;;;;;;4.82;1.40;;;17.60;64.70;;;;;;10548012;28;20631;-59
2022/02/05 20:56:36;;;;;;;5.93;1.50;;;17.60;64.60;;;;;;10582365;28;20034;-58
2022/02/05 21:01:37;;;;;;;2.30;1.30;;;17.60;64.60;;;;;;10547124;28;20114;-58
2022/02/05 21:06:42;;;;;;;2.88;1.23;;;17.60;64.50;;;;;;10573849;27;20105;-58
2022/02/05 21:11:43;;;;;;;2.95;1.77;;;17.60;64.50;;;;;;10606487;27;20039;-59
2022/02/05 21:16:44;;;;;;;2.67;1.00;;;17.60;64.40;;;;;;10584533;27;20031;-58
2022/02/05 21:21:45;;;;;;;2.75;0.85;;;17.60;64.40;;;;;;10563036;28;20034;-58
2022/02/05 21:26:46;;;;;;;2.60;0.90;;;17.60;64.30;;;;;;10576413;27;20047;-58
2022/02/05 21:31:49;;;;;;;2.47;1.00;;;17.60;64.30;;;;;;10623617;27;20441;-58
2022/02/05 21:36:49;;;;;;;5.45;1.20;;;17.60;64.40;;;;;;10574237;27;20038;-59
2022/02/05 21:41:50;;;;;;;4.70;0.90;;;17.60;64.40;;;;;;10579321;28;20391;-59
2022/02/05 21:46:51;;;;;;;3.63;1.55;;;17.50;64.30;;;;;;10562647;28;20062;-59
2022/02/05 21:51:58;;;;;;;4.45;1.25;;;17.60;64.40;;;;;;10580524;28;20456;-58
2022/02/05 21:57:04;;;;;;;3.03;0.90;;;17.50;64.30;;;;;;10614753;27;20031;-59
2022/02/05 22:02:12;;;;;;;3.03;1.23;;;17.60;64.30;;;;;;10605193;27;20091;-59
2022/02/05 22:07:13;;;;;;;3.15;1.15;;;17.50;64.20;;;;;;10621835;27;20412;-59
2022/02/05 22:12:14;;;;;;;1.80;0.85;;;17.60;64.10;;;;;;10622452;28;20084;-59
2022/02/05 22:17:16;;;;;;;3.38;0.93;;;17.60;64.10;;;;;;10604011;28;20392;-59
2022/02/05 22:22:17;;;;;;;2.50;1.00;;;17.60;64.10;;;;;;10577406;28;20125;-58
2022/02/05 22:27:18;;;;;;;2.63;1.00;;;17.60;64.00;;;;;;10598745;28;20074;-59
2022/02/05 22:32:19;;;;;;;1.80;0.70;;;17.60;64.10;;;;;;10597484;27;20027;-59
2022/02/05 22:37:22;;;;;;;2.42;0.82;;;17.50;64.00;;;;;;10611582;27;20042;-59
2022/02/05 22:42:23;;;;;;;2.70;0.80;;;17.60;64.00;;;;;;10600169;27;20031;-58
2022/02/05 22:47:24;;;;;;;2.70;0.70;;;17.60;63.90;;;;;;10567759;28;20038;-58
2022/02/05 22:52:25;;;;;;;2.67;0.75;;;17.60;64.00;;;;;;10567114;27;20115;-58
2022/02/05 22:57:26;;;;;;;2.47;0.82;;;17.50;63.80;;;;;;10573571;27;20039;-58
2022/02/05 23:02:27;;;;;;;2.92;0.73;;;17.60;63.90;;;;;;10605478;27;20032;-59
2022/02/05 23:07:27;;;;;;;2.25;0.65;;;17.60;63.90;;;;;;10585429;27;20061;-59
2022/02/05 23:12:59;;;;;;;2.67;0.77;;;17.60;63.80;;;;;;10550880;28;20156;-58
2022/02/05 23:40:27;;;;;;;1.60;0.80;;;17.60;63.70;;;;;;10572348;28;20460;-59
2022/02/05 23:44:48;;;;;;;2.30;0.70;;;17.60;63.60;;;;;;10617556;27;20063;-59
2022/02/05 23:49:49;;;;;;;1.02;0.55;;;17.60;64.30;;;;;;10601910;27;20113;-59
2022/02/05 23:54:50;;;;;;;2.58;0.95;;;17.60;63.70;;;;;;10566872;28;20027;-59
2022/02/05 23:59:51;;;;;;;1.50;0.73;;;17.60;63.70;;;;;;10566775;28;20106;-58
